Rock, Kansas
Current Conditions -  °F | °C
As of 9:58 AM on Thursday 27 Nov 2014 (Local Time) from KIAB Reporting Station
Clear Clear  
Wind Chill: 25°   Ceiling: Unl
Heat Index: 31°   Visibility: 10mi
Dew Point: 21°   Wind: 6mph
Humidity: 68%   Direction: 180°S
Pressure: 30.53"   Gusts: NA
Location:  37.44°N, 97.01°W
Report Text: KIAB 271558Z AUTO 18005KT 10SM CLR M01/M06 A3053 RMK AO2 SLP355 T10071059
Loading
Personal Weather Stations






























Interactive Weather Map New forecast layout! Learn more

10-Day Weather Forecast

Advertisements
Track Severe Weather on mobile